sensor_id;sensor_type;location;lat;lon;timestamp;temperature;humidity
10233;DHT22;5161;48.174;11.756;2024-02-14T00:00:10;7.10;66.90
10233;DHT22;5161;48.174;11.756;2024-02-14T00:02:43;7.10;66.70
10233;DHT22;5161;48.174;11.756;2024-02-14T00:05:09;7.10;66.90
10233;DHT22;5161;48.174;11.756;2024-02-14T00:07:37;7.10;66.70
10233;DHT22;5161;48.174;11.756;2024-02-14T00:10:02;7.10;66.60
10233;DHT22;5161;48.174;11.756;2024-02-14T00:12:28;7.20;66.60
10233;DHT22;5161;48.174;11.756;2024-02-14T00:14:54;7.10;66.50
10233;DHT22;5161;48.174;11.756;2024-02-14T00:17:20;7.10;66.70
10233;DHT22;5161;48.174;11.756;2024-02-14T00:19:45;7.00;66.80
10233;DHT22;5161;48.174;11.756;2024-02-14T00:22:11;7.00;66.90
10233;DHT22;5161;48.174;11.756;2024-02-14T00:24:36;7.10;66.70
10233;DHT22;5161;48.174;11.756;2024-02-14T00:27:02;7.00;66.70
10233;DHT22;5161;48.174;11.756;2024-02-14T00:29:29;7.00;66.70
10233;DHT22;5161;48.174;11.756;2024-02-14T00:31:54;7.00;66.90
10233;DHT22;5161;48.174;11.756;2024-02-14T00:34:20;7.00;66.90
10233;DHT22;5161;48.174;11.756;2024-02-14T00:36:46;7.00;66.80
10233;DHT22;5161;48.174;11.756;2024-02-14T00:39:12;7.00;66.90
10233;DHT22;5161;48.174;11.756;2024-02-14T00:41:37;6.90;66.90
10233;DHT22;5161;48.174;11.756;2024-02-14T00:44:03;6.90;66.80
10233;DHT22;5161;48.174;11.756;2024-02-14T00:46:29;7.00;66.80
10233;DHT22;5161;48.174;11.756;2024-02-14T00:48:56;6.90;66.80
10233;DHT22;5161;48.174;11.756;2024-02-14T00:51:22;6.80;67.00
10233;DHT22;5161;48.174;11.756;2024-02-14T00:53:47;6.80;67.20
10233;DHT22;5161;48.174;11.756;2024-02-14T00:56:13;6.70;67.00
10233;DHT22;5161;48.174;11.756;2024-02-14T00:58:39;6.70;67.20
10233;DHT22;5161;48.174;11.756;2024-02-14T01:01:05;6.80;67.10
10233;DHT22;5161;48.174;11.756;2024-02-14T01:03:31;6.90;67.10
10233;DHT22;5161;48.174;11.756;2024-02-14T01:05:56;7.00;67.10
10233;DHT22;5161;48.174;11.756;2024-02-14T01:08:22;7.00;67.00
10233;DHT22;5161;48.174;11.756;2024-02-14T01:10:48;7.00;66.90
10233;DHT22;5161;48.174;11.756;2024-02-14T01:13:15;7.10;66.90
10233;DHT22;5161;48.174;11.756;2024-02-14T01:15:41;7.00;67.00
10233;DHT22;5161;48.174;11.756;2024-02-14T01:18:07;6.90;66.90
10233;DHT22;5161;48.174;11.756;2024-02-14T01:20:32;6.90;66.90
10233;DHT22;5161;48.174;11.756;2024-02-14T01:22:58;7.00;66.90
10233;DHT22;5161;48.174;11.756;2024-02-14T01:25:25;7.00;67.00
10233;DHT22;5161;48.174;11.756;2024-02-14T01:27:51;7.00;67.00
10233;DHT22;5161;48.174;11.756;2024-02-14T01:30:18;7.00;66.90
10233;DHT22;5161;48.174;11.756;2024-02-14T01:32:43;7.00;66.90
10233;DHT22;5161;48.174;11.756;2024-02-14T01:35:09;7.00;66.90
10233;DHT22;5161;48.174;11.756;2024-02-14T01:37:35;7.00;66.90
10233;DHT22;5161;48.174;11.756;2024-02-14T01:40:01;7.00;66.80
10233;DHT22;5161;48.174;11.756;2024-02-14T01:42:26;7.00;66.80
10233;DHT22;5161;48.174;11.756;2024-02-14T01:44:53;7.00;66.90
10233;DHT22;5161;48.174;11.756;2024-02-14T01:47:20;6.90;66.80
10233;DHT22;5161;48.174;11.756;2024-02-14T01:49:47;7.00;67.00
10233;DHT22;5161;48.174;11.756;2024-02-14T01:52:13;6.90;67.00
10233;DHT22;5161;48.174;11.756;2024-02-14T01:54:39;6.90;67.00
10233;DHT22;5161;48.174;11.756;2024-02-14T01:57:05;6.90;66.70
10233;DHT22;5161;48.174;11.756;2024-02-14T01:59:32;6.90;66.70
10233;DHT22;5161;48.174;11.756;2024-02-14T02:02:00;6.80;66.70
10233;DHT22;5161;48.174;11.756;2024-02-14T02:04:25;6.80;67.20
10233;DHT22;5161;48.174;11.756;2024-02-14T02:06:51;6.80;66.80
10233;DHT22;5161;48.174;11.756;2024-02-14T02:09:22;6.70;66.70
10233;DHT22;5161;48.174;11.756;2024-02-14T02:11:52;6.50;67.10
10233;DHT22;5161;48.174;11.756;2024-02-14T02:14:21;6.50;68.50
10233;DHT22;5161;48.174;11.756;2024-02-14T02:16:48;6.70;67.60
10233;DHT22;5161;48.174;11.756;2024-02-14T02:19:14;6.70;67.60
10233;DHT22;5161;48.174;11.756;2024-02-14T02:21:42;6.70;67.20
10233;DHT22;5161;48.174;11.756;2024-02-14T02:24:09;6.70;67.60
10233;DHT22;5161;48.174;11.756;2024-02-14T02:26:34;6.70;67.30
10233;DHT22;5161;48.174;11.756;2024-02-14T02:29:00;6.80;67.10
10233;DHT22;5161;48.174;11.756;2024-02-14T02:31:25;6.70;67.00
10233;DHT22;5161;48.174;11.756;2024-02-14T02:33:51;6.60;67.20
10233;DHT22;5161;48.174;11.756;2024-02-14T02:36:17;6.80;67.40
10233;DHT22;5161;48.174;11.756;2024-02-14T02:38:43;6.90;67.10
10233;DHT22;5161;48.174;11.756;2024-02-14T02:41:09;6.90;66.90
10233;DHT22;5161;48.174;11.756;2024-02-14T02:43:35;6.80;67.00
10233;DHT22;5161;48.174;11.756;2024-02-14T02:46:01;6.90;67.00
10233;DHT22;5161;48.174;11.756;2024-02-14T02:48:26;7.00;67.00
10233;DHT22;5161;48.174;11.756;2024-02-14T02:50:53;7.00;66.50
10233;DHT22;5161;48.174;11.756;2024-02-14T02:53:19;6.90;66.60
10233;DHT22;5161;48.174;11.756;2024-02-14T02:55:45;6.90;66.90
10233;DHT22;5161;48.174;11.756;2024-02-14T02:58:11;6.80;66.60
10233;DHT22;5161;48.174;11.756;2024-02-14T03:00:37;6.80;66.90
10233;DHT22;5161;48.174;11.756;2024-02-14T03:03:02;6.80;66.90
10233;DHT22;5161;48.174;11.756;2024-02-14T03:05:30;6.70;66.40
10233;DHT22;5161;48.174;11.756;2024-02-14T03:07:58;6.60;66.60
10233;DHT22;5161;48.174;11.756;2024-02-14T03:10:24;6.70;66.80
10233;DHT22;5161;48.174;11.756;2024-02-14T03:12:51;6.80;66.80
10233;DHT22;5161;48.174;11.756;2024-02-14T03:15:17;6.80;66.70
10233;DHT22;5161;48.174;11.756;2024-02-14T03:17:44;6.70;66.60
10233;DHT22;5161;48.174;11.756;2024-02-14T03:20:10;6.80;66.80
10233;DHT22;5161;48.174;11.756;2024-02-14T03:22:38;6.80;66.80
10233;DHT22;5161;48.174;11.756;2024-02-14T03:25:08;6.80;66.80
10233;DHT22;5161;48.174;11.756;2024-02-14T03:27:34;6.70;66.30
10233;DHT22;5161;48.174;11.756;2024-02-14T03:30:00;6.70;66.70
10233;DHT22;5161;48.174;11.756;2024-02-14T03:32:29;6.80;66.70
10233;DHT22;5161;48.174;11.756;2024-02-14T03:34:54;6.80;66.60
10233;DHT22;5161;48.174;11.756;2024-02-14T03:37:20;6.80;66.50
10233;DHT22;5161;48.174;11.756;2024-02-14T03:39:45;6.70;66.20
10233;DHT22;5161;48.174;11.756;2024-02-14T03:42:12;6.70;66.30
10233;DHT22;5161;48.174;11.756;2024-02-14T03:44:37;6.70;66.10
10233;DHT22;5161;48.174;11.756;2024-02-14T03:47:03;6.70;66.20
10233;DHT22;5161;48.174;11.756;2024-02-14T03:49:29;6.60;66.30
10233;DHT22;5161;48.174;11.756;2024-02-14T03:51:56;6.50;66.30
10233;DHT22;5161;48.174;11.756;2024-02-14T03:54:21;6.60;66.40
10233;DHT22;5161;48.174;11.756;2024-02-14T03:56:48;6.70;66.10
10233;DHT22;5161;48.174;11.756;2024-02-14T03:59:14;6.70;65.90
10233;DHT22;5161;48.174;11.756;2024-02-14T04:01:46;6.70;65.70
10233;DHT22;5161;48.174;11.756;2024-02-14T04:04:12;6.70;66.30
10233;DHT22;5161;48.174;11.756;2024-02-14T04:06:38;6.70;65.70
10233;DHT22;5161;48.174;11.756;2024-02-14T04:09:03;6.50;65.40
10233;DHT22;5161;48.174;11.756;2024-02-14T04:11:29;6.50;65.90
10233;DHT22;5161;48.174;11.756;2024-02-14T04:13:55;6.60;65.80
10233;DHT22;5161;48.174;11.756;2024-02-14T04:16:20;6.60;65.70
10233;DHT22;5161;48.174;11.756;2024-02-14T04:18:47;6.70;65.90
10233;DHT22;5161;48.174;11.756;2024-02-14T04:21:12;6.70;65.60
10233;DHT22;5161;48.174;11.756;2024-02-14T04:23:38;6.60;65.40
10233;DHT22;5161;48.174;11.756;2024-02-14T04:26:04;6.70;65.70
10233;DHT22;5161;48.174;11.756;2024-02-14T04:28:30;6.70;65.50
10233;DHT22;5161;48.174;11.756;2024-02-14T04:30:55;6.70;65.20
10233;DHT22;5161;48.174;11.756;2024-02-14T04:33:21;6.70;65.40
10233;DHT22;5161;48.174;11.756;2024-02-14T04:35:47;6.80;65.30
10233;DHT22;5161;48.174;11.756;2024-02-14T04:38:12;6.90;64.10
10233;DHT22;5161;48.174;11.756;2024-02-14T04:40:38;6.80;64.30
10233;DHT22;5161;48.174;11.756;2024-02-14T04:43:04;6.90;64.10
10233;DHT22;5161;48.174;11.756;2024-02-14T04:45:30;6.90;65.10
10233;DHT22;5161;48.174;11.756;2024-02-14T04:47:55;6.90;63.60
10233;DHT22;5161;48.174;11.756;2024-02-14T04:50:21;7.00;63.70
10233;DHT22;5161;48.174;11.756;2024-02-14T04:52:47;7.00;63.50
10233;DHT22;5161;48.174;11.756;2024-02-14T04:55:12;6.90;63.60
10233;DHT22;5161;48.174;11.756;2024-02-14T04:57:38;6.90;63.50
10233;DHT22;5161;48.174;11.756;2024-02-14T05:00:05;6.90;63.50
10233;DHT22;5161;48.174;11.756;2024-02-14T05:02:30;6.90;63.90
10233;DHT22;5161;48.174;11.756;2024-02-14T05:04:56;6.90;63.60
10233;DHT22;5161;48.174;11.756;2024-02-14T05:07:22;6.90;63.60
10233;DHT22;5161;48.174;11.756;2024-02-14T05:09:47;6.90;63.50
10233;DHT22;5161;48.174;11.756;2024-02-14T05:12:16;7.00;63.50
10233;DHT22;5161;48.174;11.756;2024-02-14T05:14:42;7.00;63.30
10233;DHT22;5161;48.174;11.756;2024-02-14T05:17:08;7.00;63.40
10233;DHT22;5161;48.174;11.756;2024-02-14T05:19:34;7.00;63.20
10233;DHT22;5161;48.174;11.756;2024-02-14T05:21:59;7.00;63.20
10233;DHT22;5161;48.174;11.756;2024-02-14T05:24:25;7.00;63.20
10233;DHT22;5161;48.174;11.756;2024-02-14T05:26:54;7.10;63.20
10233;DHT22;5161;48.174;11.756;2024-02-14T05:29:20;7.00;63.00
10233;DHT22;5161;48.174;11.756;2024-02-14T05:31:47;7.00;62.90
10233;DHT22;5161;48.174;11.756;2024-02-14T05:34:14;6.90;63.10
10233;DHT22;5161;48.174;11.756;2024-02-14T05:36:40;6.80;63.50
10233;DHT22;5161;48.174;11.756;2024-02-14T05:39:05;6.90;63.30
10233;DHT22;5161;48.174;11.756;2024-02-14T05:41:34;6.90;63.30
10233;DHT22;5161;48.174;11.756;2024-02-14T05:44:00;6.90;63.30
10233;DHT22;5161;48.174;11.756;2024-02-14T05:46:25;6.90;63.20
10233;DHT22;5161;48.174;11.756;2024-02-14T05:48:51;6.90;63.10
10233;DHT22;5161;48.174;11.756;2024-02-14T05:51:20;6.90;63.10
10233;DHT22;5161;48.174;11.756;2024-02-14T05:53:46;6.90;63.30
10233;DHT22;5161;48.174;11.756;2024-02-14T05:56:11;6.90;63.20
10233;DHT22;5161;48.174;11.756;2024-02-14T05:58:37;6.90;63.40
10233;DHT22;5161;48.174;11.756;2024-02-14T06:01:03;6.90;63.30
10233;DHT22;5161;48.174;11.756;2024-02-14T06:03:28;6.80;63.20
10233;DHT22;5161;48.174;11.756;2024-02-14T06:05:54;6.80;63.40
10233;DHT22;5161;48.174;11.756;2024-02-14T06:08:20;6.80;63.60
10233;DHT22;5161;48.174;11.756;2024-02-14T06:10:46;6.80;63.50
10233;DHT22;5161;48.174;11.756;2024-02-14T06:13:11;6.80;63.60
10233;DHT22;5161;48.174;11.756;2024-02-14T06:15:37;6.80;63.60
10233;DHT22;5161;48.174;11.756;2024-02-14T06:18:02;6.80;63.10
10233;DHT22;5161;48.174;11.756;2024-02-14T06:20:28;6.70;63.80
10233;DHT22;5161;48.174;11.756;2024-02-14T06:22:53;6.80;63.50
10233;DHT22;5161;48.174;11.756;2024-02-14T06:25:20;6.80;63.70
10233;DHT22;5161;48.174;11.756;2024-02-14T06:27:45;6.80;63.80
10233;DHT22;5161;48.174;11.756;2024-02-14T06:30:11;6.70;63.50
10233;DHT22;5161;48.174;11.756;2024-02-14T06:32:37;6.80;64.10
10233;DHT22;5161;48.174;11.756;2024-02-14T06:35:03;6.80;63.50
10233;DHT22;5161;48.174;11.756;2024-02-14T06:37:28;6.90;63.90
10233;DHT22;5161;48.174;11.756;2024-02-14T06:39:54;6.90;63.50
10233;DHT22;5161;48.174;11.756;2024-02-14T06:42:20;6.90;63.30
10233;DHT22;5161;48.174;11.756;2024-02-14T06:44:45;6.90;63.00
10233;DHT22;5161;48.174;11.756;2024-02-14T06:47:11;6.90;63.10
10233;DHT22;5161;48.174;11.756;2024-02-14T06:49:37;6.90;63.10
10233;DHT22;5161;48.174;11.756;2024-02-14T06:52:03;6.90;62.80
10233;DHT22;5161;48.174;11.756;2024-02-14T06:54:29;6.80;63.20
10233;DHT22;5161;48.174;11.756;2024-02-14T06:56:54;6.90;63.40
10233;DHT22;5161;48.174;11.756;2024-02-14T06:59:20;7.00;63.20
10233;DHT22;5161;48.174;11.756;2024-02-14T07:01:45;7.00;63.10
10233;DHT22;5161;48.174;11.756;2024-02-14T07:04:11;7.00;63.10
10233;DHT22;5161;48.174;11.756;2024-02-14T07:06:37;7.00;63.00
10233;DHT22;5161;48.174;11.756;2024-02-14T07:09:02;7.00;62.90
10233;DHT22;5161;48.174;11.756;2024-02-14T07:11:28;7.10;62.80
10233;DHT22;5161;48.174;11.756;2024-02-14T07:13:53;7.00;62.50
10233;DHT22;5161;48.174;11.756;2024-02-14T07:16:19;7.00;62.80
10233;DHT22;5161;48.174;11.756;2024-02-14T07:18:44;7.10;62.50
10233;DHT22;5161;48.174;11.756;2024-02-14T07:21:10;7.10;62.40
10233;DHT22;5161;48.174;11.756;2024-02-14T07:23:35;7.20;62.60
10233;DHT22;5161;48.174;11.756;2024-02-14T07:26:01;7.10;62.10
10233;DHT22;5161;48.174;11.756;2024-02-14T07:28:27;7.10;62.10
10233;DHT22;5161;48.174;11.756;2024-02-14T07:30:53;7.10;62.10
10233;DHT22;5161;48.174;11.756;2024-02-14T07:33:18;7.10;62.50
10233;DHT22;5161;48.174;11.756;2024-02-14T07:35:44;7.20;62.60
10233;DHT22;5161;48.174;11.756;2024-02-14T07:38:09;7.30;62.30
10233;DHT22;5161;48.174;11.756;2024-02-14T07:40:35;7.30;61.80
10233;DHT22;5161;48.174;11.756;2024-02-14T07:43:01;7.20;61.60
10233;DHT22;5161;48.174;11.756;2024-02-14T07:45:27;7.20;62.10
10233;DHT22;5161;48.174;11.756;2024-02-14T07:47:53;7.20;61.40
10233;DHT22;5161;48.174;11.756;2024-02-14T07:50:19;7.30;61.30
10233;DHT22;5161;48.174;11.756;2024-02-14T07:52:45;7.20;61.10
10233;DHT22;5161;48.174;11.756;2024-02-14T07:55:11;7.20;61.30
10233;DHT22;5161;48.174;11.756;2024-02-14T07:57:38;7.20;61.50
10233;DHT22;5161;48.174;11.756;2024-02-14T08:00:05;7.20;61.80
10233;DHT22;5161;48.174;11.756;2024-02-14T08:02:33;7.30;61.80
10233;DHT22;5161;48.174;11.756;2024-02-14T08:04:59;7.30;61.60
10233;DHT22;5161;48.174;11.756;2024-02-14T08:07:24;7.30;61.80
10233;DHT22;5161;48.174;11.756;2024-02-14T08:09:50;7.30;61.70
10233;DHT22;5161;48.174;11.756;2024-02-14T08:12:16;7.30;61.90
10233;DHT22;5161;48.174;11.756;2024-02-14T08:14:41;7.40;62.00
10233;DHT22;5161;48.174;11.756;2024-02-14T08:17:07;7.40;62.00
10233;DHT22;5161;48.174;11.756;2024-02-14T08:19:32;7.40;61.90
10233;DHT22;5161;48.174;11.756;2024-02-14T08:21:58;7.50;62.10
10233;DHT22;5161;48.174;11.756;2024-02-14T08:24:26;7.50;61.90
10233;DHT22;5161;48.174;11.756;2024-02-14T08:26:52;7.50;61.70
10233;DHT22;5161;48.174;11.756;2024-02-14T08:29:18;7.50;61.90
10233;DHT22;5161;48.174;11.756;2024-02-14T08:31:44;7.50;61.70
10233;DHT22;5161;48.174;11.756;2024-02-14T08:34:09;7.50;61.70
10233;DHT22;5161;48.174;11.756;2024-02-14T08:36:35;7.50;61.80
10233;DHT22;5161;48.174;11.756;2024-02-14T08:39:09;7.60;61.70
10233;DHT22;5161;48.174;11.756;2024-02-14T08:41:39;7.70;62.00
10233;DHT22;5161;48.174;11.756;2024-02-14T08:44:21;7.70;62.10
10233;DHT22;5161;48.174;11.756;2024-02-14T08:46:46;7.70;61.60
10233;DHT22;5161;48.174;11.756;2024-02-14T08:49:14;7.70;61.40
10233;DHT22;5161;48.174;11.756;2024-02-14T08:51:40;7.70;61.80
10233;DHT22;5161;48.174;11.756;2024-02-14T08:54:05;7.70;61.60
10233;DHT22;5161;48.174;11.756;2024-02-14T08:56:34;7.70;61.40
10233;DHT22;5161;48.174;11.756;2024-02-14T08:59:01;7.70;62.60
10233;DHT22;5161;48.174;11.756;2024-02-14T09:01:28;7.80;62.20
10233;DHT22;5161;48.174;11.756;2024-02-14T09:03:54;7.80;62.00
10233;DHT22;5161;48.174;11.756;2024-02-14T09:06:19;7.80;61.60
10233;DHT22;5161;48.174;11.756;2024-02-14T09:08:45;7.80;61.90
10233;DHT22;5161;48.174;11.756;2024-02-14T09:11:11;7.90;62.20
10233;DHT22;5161;48.174;11.756;2024-02-14T09:13:38;8.00;62.00
10233;DHT22;5161;48.174;11.756;2024-02-14T09:16:03;8.00;61.70
10233;DHT22;5161;48.174;11.756;2024-02-14T09:18:31;8.00;61.80
10233;DHT22;5161;48.174;11.756;2024-02-14T09:20:57;8.00;62.20
10233;DHT22;5161;48.174;11.756;2024-02-14T09:23:22;8.10;62.30
10233;DHT22;5161;48.174;11.756;2024-02-14T09:25:49;8.10;62.10
10233;DHT22;5161;48.174;11.756;2024-02-14T09:28:17;8.10;61.80
10233;DHT22;5161;48.174;11.756;2024-02-14T09:30:43;8.20;62.20
10233;DHT22;5161;48.174;11.756;2024-02-14T09:33:09;8.30;62.50
10233;DHT22;5161;48.174;11.756;2024-02-14T09:35:35;8.40;62.70
10233;DHT22;5161;48.174;11.756;2024-02-14T09:38:03;8.50;62.70
10233;DHT22;5161;48.174;11.756;2024-02-14T09:40:29;8.50;61.80
10233;DHT22;5161;48.174;11.756;2024-02-14T09:42:56;8.50;61.50
10233;DHT22;5161;48.174;11.756;2024-02-14T09:45:26;8.50;61.60
10233;DHT22;5161;48.174;11.756;2024-02-14T09:47:53;8.60;62.00
10233;DHT22;5161;48.174;11.756;2024-02-14T09:50:21;8.60;62.20
10233;DHT22;5161;48.174;11.756;2024-02-14T09:52:50;8.70;62.50
10233;DHT22;5161;48.174;11.756;2024-02-14T09:55:17;8.70;62.00
10233;DHT22;5161;48.174;11.756;2024-02-14T09:57:43;8.80;61.50
10233;DHT22;5161;48.174;11.756;2024-02-14T10:00:12;8.80;62.10
10233;DHT22;5161;48.174;11.756;2024-02-14T10:02:41;8.90;62.20
10233;DHT22;5161;48.174;11.756;2024-02-14T10:05:07;9.00;61.80
10233;DHT22;5161;48.174;11.756;2024-02-14T10:07:43;9.00;61.60
10233;DHT22;5161;48.174;11.756;2024-02-14T10:10:09;9.10;60.80
10233;DHT22;5161;48.174;11.756;2024-02-14T10:12:35;9.00;61.10
10233;DHT22;5161;48.174;11.756;2024-02-14T10:15:01;9.10;60.30
10233;DHT22;5161;48.174;11.756;2024-02-14T10:17:27;9.20;60.80
10233;DHT22;5161;48.174;11.756;2024-02-14T10:20:01;9.20;60.60
10233;DHT22;5161;48.174;11.756;2024-02-14T10:22:38;9.20;61.50
10233;DHT22;5161;48.174;11.756;2024-02-14T10:25:05;9.30;62.00
10233;DHT22;5161;48.174;11.756;2024-02-14T10:27:36;9.40;62.10
10233;DHT22;5161;48.174;11.756;2024-02-14T10:30:06;9.40;61.60
10233;DHT22;5161;48.174;11.756;2024-02-14T10:32:36;9.50;62.00
10233;DHT22;5161;48.174;11.756;2024-02-14T10:35:06;9.50;62.10
10233;DHT22;5161;48.174;11.756;2024-02-14T10:37:37;9.60;62.30
10233;DHT22;5161;48.174;11.756;2024-02-14T10:40:04;9.60;62.30
10233;DHT22;5161;48.174;11.756;2024-02-14T10:42:34;9.70;62.50
10233;DHT22;5161;48.174;11.756;2024-02-14T10:45:00;9.80;63.00
10233;DHT22;5161;48.174;11.756;2024-02-14T10:47:34;9.90;63.30
10233;DHT22;5161;48.174;11.756;2024-02-14T10:50:05;10.00;61.80
10233;DHT22;5161;48.174;11.756;2024-02-14T10:52:36;10.10;61.60
10233;DHT22;5161;48.174;11.756;2024-02-14T10:55:03;10.10;62.20
10233;DHT22;5161;48.174;11.756;2024-02-14T10:57:30;10.10;61.60
10233;DHT22;5161;48.174;11.756;2024-02-14T11:00:01;10.20;60.60
10233;DHT22;5161;48.174;11.756;2024-02-14T11:02:27;10.30;61.10
10233;DHT22;5161;48.174;11.756;2024-02-14T11:04:56;10.40;61.30
10233;DHT22;5161;48.174;11.756;2024-02-14T11:07:22;10.50;61.30
10233;DHT22;5161;48.174;11.756;2024-02-14T11:09:59;10.60;61.10
10233;DHT22;5161;48.174;11.756;2024-02-14T11:12:25;10.70;61.00
10233;DHT22;5161;48.174;11.756;2024-02-14T11:14:51;10.80;61.00
10233;DHT22;5161;48.174;11.756;2024-02-14T11:17:23;10.90;61.40
10233;DHT22;5161;48.174;11.756;2024-02-14T11:19:52;11.00;61.40
10233;DHT22;5161;48.174;11.756;2024-02-14T11:22:19;11.20;62.30
10233;DHT22;5161;48.174;11.756;2024-02-14T11:24:48;11.30;62.00
10233;DHT22;5161;48.174;11.756;2024-02-14T11:27:17;11.40;62.00
10233;DHT22;5161;48.174;11.756;2024-02-14T11:29:53;11.50;61.40
10233;DHT22;5161;48.174;11.756;2024-02-14T11:32:19;11.50;61.90
10233;DHT22;5161;48.174;11.756;2024-02-14T11:34:57;11.60;61.90
10233;DHT22;5161;48.174;11.756;2024-02-14T11:37:30;11.70;61.50
10233;DHT22;5161;48.174;11.756;2024-02-14T11:39:56;11.70;62.60
10233;DHT22;5161;48.174;11.756;2024-02-14T11:42:23;11.70;62.20
10233;DHT22;5161;48.174;11.756;2024-02-14T11:44:49;11.80;62.30
10233;DHT22;5161;48.174;11.756;2024-02-14T11:47:15;11.90;62.80
10233;DHT22;5161;48.174;11.756;2024-02-14T11:49:40;12.10;61.50
10233;DHT22;5161;48.174;11.756;2024-02-14T11:52:10;12.30;63.00
10233;DHT22;5161;48.174;11.756;2024-02-14T11:54:36;12.60;63.00
10233;DHT22;5161;48.174;11.756;2024-02-14T11:57:03;12.80;62.40
10233;DHT22;5161;48.174;11.756;2024-02-14T11:59:29;12.90;61.40
10233;DHT22;5161;48.174;11.756;2024-02-14T12:01:54;12.80;62.40
10233;DHT22;5161;48.174;11.756;2024-02-14T12:04:23;12.70;61.60
10233;DHT22;5161;48.174;11.756;2024-02-14T12:06:49;12.50;62.00
10233;DHT22;5161;48.174;11.756;2024-02-14T12:09:15;12.40;62.00
10233;DHT22;5161;48.174;11.756;2024-02-14T12:11:41;12.40;62.10
10233;DHT22;5161;48.174;11.756;2024-02-14T12:14:09;12.30;62.30
10233;DHT22;5161;48.174;11.756;2024-02-14T12:16:36;12.20;62.50
10233;DHT22;5161;48.174;11.756;2024-02-14T12:19:04;12.20;62.80
10233;DHT22;5161;48.174;11.756;2024-02-14T12:21:34;12.20;63.10
10233;DHT22;5161;48.174;11.756;2024-02-14T12:24:00;12.10;62.90
10233;DHT22;5161;48.174;11.756;2024-02-14T12:26:26;12.10;62.80
10233;DHT22;5161;48.174;11.756;2024-02-14T12:28:52;12.10;63.20
10233;DHT22;5161;48.174;11.756;2024-02-14T12:31:22;12.10;62.90
10233;DHT22;5161;48.174;11.756;2024-02-14T12:33:49;12.10;62.50
10233;DHT22;5161;48.174;11.756;2024-02-14T12:36:14;12.10;62.40
10233;DHT22;5161;48.174;11.756;2024-02-14T12:38:40;12.10;62.80
10233;DHT22;5161;48.174;11.756;2024-02-14T12:41:06;12.10;62.70
10233;DHT22;5161;48.174;11.756;2024-02-14T12:43:31;12.20;63.00
10233;DHT22;5161;48.174;11.756;2024-02-14T12:45:57;12.30;62.90
10233;DHT22;5161;48.174;11.756;2024-02-14T12:48:24;12.20;63.10
10233;DHT22;5161;48.174;11.756;2024-02-14T12:50:53;12.20;63.30
10233;DHT22;5161;48.174;11.756;2024-02-14T12:53:20;12.20;63.40
10233;DHT22;5161;48.174;11.756;2024-02-14T12:55:46;12.30;63.50
10233;DHT22;5161;48.174;11.756;2024-02-14T12:58:12;12.50;63.50
10233;DHT22;5161;48.174;11.756;2024-02-14T13:00:38;12.70;63.20
10233;DHT22;5161;48.174;11.756;2024-02-14T13:03:04;12.70;63.10
10233;DHT22;5161;48.174;11.756;2024-02-14T13:05:30;12.60;63.30
10233;DHT22;5161;48.174;11.756;2024-02-14T13:07:56;12.60;63.10
10233;DHT22;5161;48.174;11.756;2024-02-14T13:10:22;12.50;63.50
10233;DHT22;5161;48.174;11.756;2024-02-14T13:12:47;12.40;63.10
10233;DHT22;5161;48.174;11.756;2024-02-14T13:15:13;12.40;63.30
10233;DHT22;5161;48.174;11.756;2024-02-14T13:17:39;12.30;64.60
10233;DHT22;5161;48.174;11.756;2024-02-14T13:20:05;12.30;65.20
10233;DHT22;5161;48.174;11.756;2024-02-14T13:22:31;12.30;65.50
10233;DHT22;5161;48.174;11.756;2024-02-14T13:24:58;12.20;65.50
10233;DHT22;5161;48.174;11.756;2024-02-14T13:27:26;12.20;65.50
10233;DHT22;5161;48.174;11.756;2024-02-14T13:29:51;12.20;65.80
10233;DHT22;5161;48.174;11.756;2024-02-14T13:32:17;12.20;65.80
10233;DHT22;5161;48.174;11.756;2024-02-14T13:34:42;12.10;66.30
10233;DHT22;5161;48.174;11.756;2024-02-14T13:37:09;12.10;66.40
10233;DHT22;5161;48.174;11.756;2024-02-14T13:39:35;12.10;66.50
10233;DHT22;5161;48.174;11.756;2024-02-14T13:42:00;12.20;66.60
10233;DHT22;5161;48.174;11.756;2024-02-14T13:44:27;12.10;66.60
10233;DHT22;5161;48.174;11.756;2024-02-14T13:46:53;12.20;66.70
10233;DHT22;5161;48.174;11.756;2024-02-14T13:49:19;12.10;66.60
10233;DHT22;5161;48.174;11.756;2024-02-14T13:51:48;12.10;67.00
10233;DHT22;5161;48.174;11.756;2024-02-14T13:54:15;12.20;67.40
10233;DHT22;5161;48.174;11.756;2024-02-14T13:56:41;12.20;67.30
10233;DHT22;5161;48.174;11.756;2024-02-14T13:59:07;12.20;67.60
10233;DHT22;5161;48.174;11.756;2024-02-14T14:01:32;12.30;68.10
10233;DHT22;5161;48.174;11.756;2024-02-14T14:03:58;12.30;67.90
10233;DHT22;5161;48.174;11.756;2024-02-14T14:06:23;12.50;68.40
10233;DHT22;5161;48.174;11.756;2024-02-14T14:08:51;12.50;67.90
10233;DHT22;5161;48.174;11.756;2024-02-14T14:11:17;12.60;68.10
10233;DHT22;5161;48.174;11.756;2024-02-14T14:13:43;12.70;68.30
10233;DHT22;5161;48.174;11.756;2024-02-14T14:16:08;13.00;69.10
10233;DHT22;5161;48.174;11.756;2024-02-14T14:18:35;13.40;69.30
10233;DHT22;5161;48.174;11.756;2024-02-14T14:21:00;13.80;69.00
10233;DHT22;5161;48.174;11.756;2024-02-14T14:23:26;13.80;67.90
10233;DHT22;5161;48.174;11.756;2024-02-14T14:25:52;13.60;68.20
10233;DHT22;5161;48.174;11.756;2024-02-14T14:28:17;13.40;67.80
10233;DHT22;5161;48.174;11.756;2024-02-14T14:30:45;13.30;67.80
10233;DHT22;5161;48.174;11.756;2024-02-14T14:33:11;13.20;67.80
10233;DHT22;5161;48.174;11.756;2024-02-14T14:35:36;13.10;67.70
10233;DHT22;5161;48.174;11.756;2024-02-14T14:38:03;13.00;67.40
10233;DHT22;5161;48.174;11.756;2024-02-14T14:40:29;12.90;67.40
10233;DHT22;5161;48.174;11.756;2024-02-14T14:42:54;12.90;67.50
10233;DHT22;5161;48.174;11.756;2024-02-14T14:45:20;12.90;67.60
10233;DHT22;5161;48.174;11.756;2024-02-14T14:47:46;12.90;67.60
10233;DHT22;5161;48.174;11.756;2024-02-14T14:50:11;12.90;67.70
10233;DHT22;5161;48.174;11.756;2024-02-14T14:52:38;12.90;67.70
10233;DHT22;5161;48.174;11.756;2024-02-14T14:55:05;12.90;67.80
10233;DHT22;5161;48.174;11.756;2024-02-14T14:57:30;12.90;67.70
10233;DHT22;5161;48.174;11.756;2024-02-14T14:59:56;12.90;67.90
10233;DHT22;5161;48.174;11.756;2024-02-14T15:02:22;12.90;67.90
10233;DHT22;5161;48.174;11.756;2024-02-14T15:04:47;12.90;67.80
10233;DHT22;5161;48.174;11.756;2024-02-14T15:07:13;12.90;67.90
10233;DHT22;5161;48.174;11.756;2024-02-14T15:09:39;12.90;68.00
10233;DHT22;5161;48.174;11.756;2024-02-14T15:12:05;13.10;68.40
10233;DHT22;5161;48.174;11.756;2024-02-14T15:14:31;13.20;67.90
10233;DHT22;5161;48.174;11.756;2024-02-14T15:16:56;13.20;68.00
10233;DHT22;5161;48.174;11.756;2024-02-14T15:19:22;13.20;68.10
10233;DHT22;5161;48.174;11.756;2024-02-14T15:21:50;13.10;68.00
10233;DHT22;5161;48.174;11.756;2024-02-14T15:24:15;13.10;68.00
10233;DHT22;5161;48.174;11.756;2024-02-14T15:26:41;13.10;68.00
10233;DHT22;5161;48.174;11.756;2024-02-14T15:29:18;13.00;67.90
10233;DHT22;5161;48.174;11.756;2024-02-14T15:32:03;12.90;67.90
10233;DHT22;5161;48.174;11.756;2024-02-14T15:34:47;12.90;68.10
10233;DHT22;5161;48.174;11.756;2024-02-14T15:37:13;12.80;68.00